createdAt,value
2017-09-03T00:01:00.994Z,1012.90
2017-09-03T00:05:56.685Z,1012.79
2017-09-03T00:10:52.233Z,1012.58
2017-09-03T00:15:48.435Z,1012.65
2017-09-03T00:20:45.248Z,1012.68
2017-09-03T00:25:40.831Z,1012.66
2017-09-03T00:30:36.710Z,1012.60
2017-09-03T00:35:33.135Z,1012.55
2017-09-03T00:40:29.008Z,1012.54
2017-09-03T00:45:24.863Z,1012.48
2017-09-03T00:50:21.662Z,1012.61
2017-09-03T00:55:18.190Z,1012.59
2017-09-03T01:00:14.267Z,1012.58
2017-09-03T01:05:10.660Z,1012.58
2017-09-03T01:10:06.855Z,1012.62
2017-09-03T01:15:02.708Z,1012.59
2017-09-03T01:19:58.456Z,1012.48
2017-09-03T01:24:55.372Z,1012.51
2017-09-03T01:29:50.799Z,1012.47
2017-09-03T01:34:46.601Z,1012.36
2017-09-03T01:39:42.523Z,1012.34
2017-09-03T01:44:38.699Z,1012.28
2017-09-03T01:49:34.536Z,1012.20
2017-09-03T01:54:29.928Z,1012.20
2017-09-03T01:59:25.630Z,1012.12
2017-09-03T02:04:22.544Z,1012.16
2017-09-03T02:09:19.006Z,1012.25
2017-09-03T02:14:14.213Z,1012.17
2017-09-03T02:19:10.042Z,1012.20
2017-09-03T02:24:06.092Z,1012.21
2017-09-03T02:29:02.601Z,1012.07
2017-09-03T02:33:58.345Z,1012.03
2017-09-03T02:38:54.286Z,1012.11
2017-09-03T02:43:51.484Z,1012.10
2017-09-03T02:48:48.037Z,1012.08
2017-09-03T02:53:44.635Z,1012.13
2017-09-03T02:58:41.381Z,1012.06
2017-09-03T03:03:37.061Z,1012.10
2017-09-03T03:08:32.877Z,1012.08
2017-09-03T03:13:29.678Z,1012.08
2017-09-03T03:18:25.376Z,1012.08
2017-09-03T03:23:20.843Z,1012.09
2017-09-03T03:28:16.709Z,1012.14
2017-09-03T03:33:12.498Z,1012.04
2017-09-03T03:38:08.293Z,1012.11
2017-09-03T03:43:04.935Z,1012.05
2017-09-03T03:48:00.381Z,1012.03
2017-09-03T03:52:57.890Z,1011.97
2017-09-03T03:57:54.419Z,1011.93
2017-09-03T04:02:50.431Z,1011.89
2017-09-03T04:07:46.347Z,1011.98
2017-09-03T04:12:43.282Z,1011.91
2017-09-03T04:17:38.779Z,1011.84
2017-09-03T04:22:35.955Z,1011.91
2017-09-03T04:27:31.614Z,1011.77
2017-09-03T04:32:27.510Z,1011.77
2017-09-03T04:37:23.237Z,1011.71
2017-09-03T04:42:21.047Z,1011.58
2017-09-03T04:47:16.170Z,1011.60
2017-09-03T04:52:14.806Z,1011.64
2017-09-03T04:57:09.800Z,1011.57
2017-09-03T05:02:05.809Z,1011.60
2017-09-03T05:07:01.894Z,1011.48
2017-09-03T05:11:58.798Z,1011.52
2017-09-03T05:16:55.812Z,1011.59
2017-09-03T05:21:52.306Z,1011.64
2017-09-03T05:26:47.938Z,1011.54
2017-09-03T05:31:43.409Z,1011.58
2017-09-03T05:36:39.411Z,1011.55
2017-09-03T05:41:35.378Z,1011.50
2017-09-03T05:46:32.055Z,1011.60
2017-09-03T05:51:29.335Z,1011.61
2017-09-03T05:56:26.052Z,1011.53
2017-09-03T06:01:21.864Z,1011.67
2017-09-03T06:06:18.898Z,1011.56
2017-09-03T06:11:14.504Z,1011.60
2017-09-03T06:16:12.164Z,1011.56
2017-09-03T06:21:08.170Z,1011.59
2017-09-03T06:26:05.076Z,1011.59
2017-09-03T06:31:02.108Z,1011.55
2017-09-03T06:35:57.888Z,1011.63
2017-09-03T06:40:53.795Z,1011.66
2017-09-03T06:45:50.183Z,1011.58
2017-09-03T06:50:46.217Z,1011.62
2017-09-03T06:55:42.073Z,1011.67
2017-09-03T07:00:38.891Z,1011.68
2017-09-03T07:05:34.431Z,1011.74
2017-09-03T07:10:30.532Z,1011.67
2017-09-03T07:15:27.421Z,1011.67
2017-09-03T07:20:23.364Z,1011.73
2017-09-03T07:25:19.431Z,1011.65
2017-09-03T07:30:15.475Z,1011.70
2017-09-03T07:35:11.658Z,1011.75
2017-09-03T07:40:07.715Z,1011.66
2017-09-03T07:45:03.855Z,1011.68
2017-09-03T07:49:59.652Z,1011.68
2017-09-03T07:54:55.532Z,1011.70
2017-09-03T07:59:52.286Z,1011.64
2017-09-03T08:04:48.874Z,1011.54
2017-09-03T08:09:45.135Z,1011.67
2017-09-03T08:14:41.585Z,1011.56
2017-09-03T08:19:37.760Z,1011.52
2017-09-03T08:24:34.704Z,1011.47
2017-09-03T08:29:30.391Z,1011.49
2017-09-03T08:34:27.338Z,1011.49
2017-09-03T08:39:24.901Z,1011.42
2017-09-03T08:44:20.352Z,1011.41
2017-09-03T08:49:16.119Z,1011.31
2017-09-03T08:54:12.982Z,1011.26
2017-09-03T08:59:08.524Z,1011.25
2017-09-03T09:04:04.355Z,1011.04
2017-09-03T09:09:01.153Z,1011.10
2017-09-03T09:13:57.946Z,1011.08
2017-09-03T09:18:54.429Z,1011.12
2017-09-03T09:23:50.171Z,1011.07
2017-09-03T09:28:47.633Z,1010.96
2017-09-03T09:33:44.307Z,1010.98
2017-09-03T09:38:39.927Z,1011.04
2017-09-03T09:43:36.282Z,1010.96
2017-09-03T09:48:32.365Z,1010.96
2017-09-03T09:53:30.513Z,1010.92
2017-09-03T09:58:25.879Z,1010.86
2017-09-03T10:03:22.076Z,1010.91
2017-09-03T10:08:19.509Z,1011.05
2017-09-03T10:13:18.114Z,1011.13
2017-09-03T10:18:15.924Z,1011.62
2017-09-03T10:23:13.824Z,1011.57
2017-09-03T10:28:13.245Z,1011.40
2017-09-03T10:33:09.943Z,1011.06
2017-09-03T10:38:06.627Z,1010.65
2017-09-03T10:43:01.085Z,1010.67
2017-09-03T10:47:56.092Z,1010.68
2017-09-03T10:52:52.829Z,1010.67
2017-09-03T10:57:50.497Z,1010.53
2017-09-03T11:02:46.373Z,1010.54
2017-09-03T11:07:42.720Z,1010.48
2017-09-03T11:12:37.783Z,1010.45
2017-09-03T11:17:33.344Z,1010.40
2017-09-03T11:22:29.504Z,1010.47
2017-09-03T11:27:29.034Z,1010.36
2017-09-03T11:32:27.602Z,1010.30
2017-09-03T11:37:25.712Z,1010.26
2017-09-03T11:42:22.357Z,1010.24
2017-09-03T11:47:19.284Z,1010.08
2017-09-03T11:52:15.053Z,1010.13
2017-09-03T11:57:09.848Z,1010.07
2017-09-03T12:02:07.088Z,1010.08
2017-09-03T12:07:01.550Z,1010.01
2017-09-03T12:11:56.580Z,1009.87
2017-09-03T12:16:52.139Z,1009.84
2017-09-03T12:21:48.340Z,1009.86
2017-09-03T12:26:43.414Z,1009.95
2017-09-03T12:31:39.362Z,1009.87
2017-09-03T12:36:35.755Z,1009.77
2017-09-03T12:41:31.083Z,1009.65
2017-09-03T12:46:26.724Z,1009.64
2017-09-03T12:51:22.821Z,1009.57
2017-09-03T12:56:20.129Z,1009.45
2017-09-03T13:01:16.751Z,1009.51
2017-09-03T13:06:12.509Z,1009.44
2017-09-03T13:11:08.418Z,1009.27
2017-09-03T13:16:04.570Z,1009.24
2017-09-03T13:21:00.586Z,1009.19
2017-09-03T13:25:58.201Z,1009.16
2017-09-03T13:30:55.182Z,1009.03
2017-09-03T13:35:51.793Z,1008.98
2017-09-03T13:40:47.156Z,1008.98
2017-09-03T13:45:44.418Z,1009.02
2017-09-03T13:50:39.760Z,1008.93
2017-09-03T13:55:36.564Z,1008.96
2017-09-03T14:00:32.358Z,1008.97
2017-09-03T14:05:29.567Z,1008.89
2017-09-03T14:10:25.100Z,1008.85
2017-09-03T14:15:21.135Z,1008.81
2017-09-03T14:20:17.273Z,1008.82
2017-09-03T14:25:13.039Z,1008.72
2017-09-03T14:30:10.224Z,1008.77
2017-09-03T14:35:05.942Z,1008.65
2017-09-03T14:40:01.574Z,1008.62
2017-09-03T14:44:57.946Z,1008.66
2017-09-03T14:49:54.998Z,1008.60
2017-09-03T14:54:50.417Z,1008.62
2017-09-03T14:59:46.537Z,1008.54
2017-09-03T15:04:42.686Z,1008.58
2017-09-03T15:09:38.702Z,1008.49
2017-09-03T15:14:35.845Z,1008.46
2017-09-03T15:19:31.404Z,1008.53
2017-09-03T15:24:27.872Z,1008.45
2017-09-03T15:29:25.682Z,1008.43
2017-09-03T15:34:21.006Z,1008.35
2017-09-03T15:39:16.496Z,1008.42
2017-09-03T15:44:13.295Z,1008.30
2017-09-03T15:49:09.975Z,1008.27
2017-09-03T15:54:05.705Z,1008.29
2017-09-03T15:59:01.431Z,1008.29
2017-09-03T16:03:57.515Z,1008.31
2017-09-03T16:08:54.448Z,1008.33
2017-09-03T16:13:51.047Z,1008.20
2017-09-03T16:18:46.603Z,1008.13
2017-09-03T16:23:42.361Z,1008.22
2017-09-03T16:28:37.917Z,1008.19
2017-09-03T16:33:34.909Z,1008.20
2017-09-03T16:38:30.497Z,1008.12
2017-09-03T16:43:26.263Z,1008.13
2017-09-03T16:48:23.657Z,1008.16
2017-09-03T16:53:19.258Z,1008.05
2017-09-03T16:58:15.846Z,1008.11
2017-09-03T17:03:12.477Z,1008.12
2017-09-03T17:08:09.212Z,1008.09
2017-09-03T17:13:05.617Z,1008.11
2017-09-03T17:18:01.013Z,1008.17
2017-09-03T17:22:57.005Z,1008.20
2017-09-03T17:27:57.161Z,1008.20
2017-09-03T17:32:51.930Z,1008.18
2017-09-03T17:37:47.912Z,1008.19
2017-09-03T17:42:43.572Z,1008.26
2017-09-03T17:47:39.431Z,1008.32
2017-09-03T17:52:35.378Z,1008.25
2017-09-03T17:57:31.807Z,1008.26
2017-09-03T18:02:28.251Z,1008.29
2017-09-03T18:07:23.567Z,1008.33
2017-09-03T18:12:19.604Z,1008.35
2017-09-03T18:17:15.305Z,1008.41
2017-09-03T18:22:12.835Z,1008.22
2017-09-03T18:27:08.482Z,1008.37
2017-09-03T18:32:04.048Z,1008.33
2017-09-03T18:37:00.923Z,1008.34
2017-09-03T18:41:56.235Z,1008.44
2017-09-03T18:46:53.194Z,1008.42
2017-09-03T18:51:49.177Z,1008.52
2017-09-03T18:56:44.781Z,1008.53
2017-09-03T19:01:41.485Z,1008.56
2017-09-03T19:06:37.933Z,1008.63
2017-09-03T19:11:33.601Z,1008.66
2017-09-03T19:16:28.952Z,1008.66
2017-09-03T19:21:25.952Z,1008.69
2017-09-03T19:26:21.844Z,1008.67
2017-09-03T19:31:18.047Z,1008.63
2017-09-03T19:36:13.781Z,1008.76
2017-09-03T19:41:09.432Z,1008.75
2017-09-03T19:46:05.548Z,1008.68
2017-09-03T19:51:02.348Z,1008.71
2017-09-03T19:55:57.574Z,1008.77
2017-09-03T20:00:53.165Z,1008.80
2017-09-03T20:05:50.293Z,1008.81
2017-09-03T20:10:47.174Z,1008.84
2017-09-03T20:15:44.182Z,1008.84
2017-09-03T20:20:39.901Z,1008.86
2017-09-03T20:25:35.976Z,1008.85
2017-09-03T20:30:31.812Z,1008.82
2017-09-03T20:35:29.086Z,1008.81
2017-09-03T20:40:26.532Z,1008.89
2017-09-03T20:45:21.974Z,1008.81
2017-09-03T20:50:17.771Z,1008.88
2017-09-03T20:55:13.523Z,1008.80
2017-09-03T21:00:09.882Z,1008.88
2017-09-03T21:05:05.580Z,1008.87
2017-09-03T21:10:01.649Z,1008.88
2017-09-03T21:14:58.108Z,1008.88
2017-09-03T21:19:53.890Z,1008.89
2017-09-03T21:24:51.878Z,1008.81
2017-09-03T21:29:47.324Z,1008.80
2017-09-03T21:34:43.118Z,1008.80
2017-09-03T21:39:38.994Z,1008.82
2017-09-03T21:44:34.869Z,1008.78
2017-09-03T21:49:31.578Z,1008.83
2017-09-03T21:54:27.417Z,1008.88
2017-09-03T21:59:24.215Z,1008.80
2017-09-03T22:04:21.324Z,1008.76
2017-09-03T22:09:17.889Z,1008.81
2017-09-03T22:14:13.423Z,1008.87
2017-09-03T22:19:09.386Z,1008.79
2017-09-03T22:24:06.284Z,1008.87
2017-09-03T22:29:01.710Z,1008.84
2017-09-03T22:33:57.606Z,1008.70
2017-09-03T22:38:53.296Z,1008.79
2017-09-03T22:43:49.488Z,1008.84
2017-09-03T22:48:45.307Z,1008.77
2017-09-03T22:53:40.849Z,1008.71
2017-09-03T22:58:37.530Z,1008.67
2017-09-03T23:03:32.884Z,1008.73
2017-09-03T23:08:28.489Z,1008.67
2017-09-03T23:13:24.356Z,1008.61
2017-09-03T23:18:20.996Z,1008.76
2017-09-03T23:23:16.449Z,1008.70
2017-09-03T23:28:12.350Z,1008.66
2017-09-03T23:33:08.092Z,1008.72
2017-09-03T23:38:03.775Z,1008.73
2017-09-03T23:42:59.818Z,1008.67
2017-09-03T23:47:56.353Z,1008.65
2017-09-03T23:52:52.002Z,1008.64
2017-09-03T23:57:48.071Z,1008.58
